sensor_id;sensor_type;location;lat;lon;timestamp;pressure;altitude;pressure_sealevel;temperature;humidity
79000;BME280;68406;53.914;27.416;2023-07-20T00:00:58;979.4;;;16.5;62.1
79000;BME280;68406;53.914;27.416;2023-07-20T00:05:42;979.4;;;16.4;62.4
79000;BME280;68406;53.914;27.416;2023-07-20T00:10:36;979.4;;;16.3;62.6
79000;BME280;68406;53.914;27.416;2023-07-20T00:15:30;979.5;;;16.2;62.5
79000;BME280;68406;53.914;27.416;2023-07-20T00:20:16;979.5;;;16.2;62.6
79000;BME280;68406;53.914;27.416;2023-07-20T00:25:22;979.5;;;16.1;62.8
79000;BME280;68406;53.914;27.416;2023-07-20T00:30:16;979.4;;;16;63
79000;BME280;68406;53.914;27.416;2023-07-20T00:35:58;979.4;;;16;63.1
79000;BME280;68406;53.914;27.416;2023-07-20T00:40:44;979.4;;;15.9;63.2
79000;BME280;68406;53.914;27.416;2023-07-20T00:45:50;979.4;;;15.9;63.4
79000;BME280;68406;53.914;27.416;2023-07-20T00:50:28;979.4;;;15.9;63.6
79000;BME280;68406;53.914;27.416;2023-07-20T00:55:22;979.5;;;15.8;63.9
79000;BME280;68406;53.914;27.416;2023-07-20T01:00:58;979.4;;;15.8;64.1
79000;BME280;68406;53.914;27.416;2023-07-20T01:05:23;979.4;;;15.8;64.1
79000;BME280;68406;53.914;27.416;2023-07-20T01:10:18;979.4;;;15.8;64.3
79000;BME280;68406;53.914;27.416;2023-07-20T01:15:30;979.4;;;15.8;64.3
79000;BME280;68406;53.914;27.416;2023-07-20T01:20:59;979.5;;;15.8;64.4
79000;BME280;68406;53.914;27.416;2023-07-20T01:25:29;979.5;;;15.8;64.7
79000;BME280;68406;53.914;27.416;2023-07-20T01:30:34;979.5;;;15.7;64.9
79000;BME280;68406;53.914;27.416;2023-07-20T01:35:44;979.5;;;15.7;65.1
79000;BME280;68406;53.914;27.416;2023-07-20T01:40:22;979.5;;;15.7;65.3
79000;BME280;68406;53.914;27.416;2023-07-20T01:45:28;979.5;;;15.7;65.2
79000;BME280;68406;53.914;27.416;2023-07-20T01:50:34;979.4;;;15.6;65.4
79000;BME280;68406;53.914;27.416;2023-07-20T01:55:58;979.4;;;15.6;65.5
79000;BME280;68406;53.914;27.416;2023-07-20T02:00:16;979.4;;;15.6;65.5
79000;BME280;68406;53.914;27.416;2023-07-20T02:05:22;979.4;;;15.6;65.5
79000;BME280;68406;53.914;27.416;2023-07-20T02:10:51;979.4;;;15.6;65.5
79000;BME280;68406;53.914;27.416;2023-07-20T02:15:38;979.4;;;15.7;65.6
79000;BME280;68406;53.914;27.416;2023-07-20T02:20:38;979.5;;;15.7;65.6
79000;BME280;68406;53.914;27.416;2023-07-20T02:25:22;979.5;;;15.7;65.7
79000;BME280;68406;53.914;27.416;2023-07-20T02:30:42;979.5;;;15.7;65.5
79000;BME280;68406;53.914;27.416;2023-07-20T02:35:36;979.5;;;15.7;65.6
79000;BME280;68406;53.914;27.416;2023-07-20T02:40:50;979.5;;;15.8;65.8
79000;BME280;68406;53.914;27.416;2023-07-20T02:45:56;979.5;;;15.7;66
79000;BME280;68406;53.914;27.416;2023-07-20T02:50:36;979.5;;;15.8;66.1
79000;BME280;68406;53.914;27.416;2023-07-20T02:55:28;979.4;;;15.8;65.9
79000;BME280;68406;53.914;27.416;2023-07-20T03:00:32;979.4;;;15.9;65.7
79000;BME280;68406;53.914;27.416;2023-07-20T03:05:32;979.4;;;15.9;65.6
79000;BME280;68406;53.914;27.416;2023-07-20T03:10:16;979.4;;;16;65.7
79000;BME280;68406;53.914;27.416;2023-07-20T03:15:58;979.4;;;16;65.5
79000;BME280;68406;53.914;27.416;2023-07-20T03:20:16;979.4;;;16.1;65.4
79000;BME280;68406;53.914;27.416;2023-07-20T03:25:36;979.4;;;16.1;65.3
79000;BME280;68406;53.914;27.416;2023-07-20T03:30:58;979.4;;;16.2;65.2
79000;BME280;68406;53.914;27.416;2023-07-20T03:35:44;979.5;;;16.2;65.4
79000;BME280;68406;53.914;27.416;2023-07-20T03:40:22;979.6;;;16.1;66
79000;BME280;68406;53.914;27.416;2023-07-20T03:45:48;979.6;;;16.2;66.2
79000;BME280;68406;53.914;27.416;2023-07-20T03:50:58;979.5;;;16.3;65.8
79000;BME280;68406;53.914;27.416;2023-07-20T03:55:58;979.5;;;16.5;65.1
79000;BME280;68406;53.914;27.416;2023-07-20T04:00:58;979.5;;;16.7;64.6
79000;BME280;68406;53.914;27.416;2023-07-20T04:05:42;979.5;;;16.8;64.4
79000;BME280;68406;53.914;27.416;2023-07-20T04:10:22;979.5;;;16.8;64.8
79000;BME280;68406;53.914;27.416;2023-07-20T04:15:22;979.6;;;16.7;65.7
79000;BME280;68406;53.914;27.416;2023-07-20T04:20:50;979.6;;;16.5;66.7
79000;BME280;68406;53.914;27.416;2023-07-20T04:25:58;979.6;;;16.4;67.9
79000;BME280;68406;53.914;27.416;2023-07-20T04:30:44;979.6;;;16.3;69
79000;BME280;68406;53.914;27.416;2023-07-20T04:35:50;979.6;;;16.5;68.2
79000;BME280;68406;53.914;27.416;2023-07-20T04:40:58;979.6;;;16.8;66.7
79000;BME280;68406;53.914;27.416;2023-07-20T04:45:42;979.6;;;17.1;65.9
79000;BME280;68406;53.914;27.416;2023-07-20T04:50:16;979.6;;;17.4;65.4
79000;BME280;68406;53.914;27.416;2023-07-20T04:55:47;979.5;;;17.6;63.8
79000;BME280;68406;53.914;27.416;2023-07-20T05:00:58;979.5;;;17.9;62.7
79000;BME280;68406;53.914;27.416;2023-07-20T05:05:42;979.6;;;18.4;61.6
79000;BME280;68406;53.914;27.416;2023-07-20T05:10:48;979.6;;;18.7;60.6
79000;BME280;68406;53.914;27.416;2023-07-20T05:15:16;979.6;;;18.9;60.2
79000;BME280;68406;53.914;27.416;2023-07-20T05:20:16;979.6;;;18.8;60.3
79000;BME280;68406;53.914;27.416;2023-07-20T05:25:58;979.7;;;18.6;60.1
79000;BME280;68406;53.914;27.416;2023-07-20T05:30:22;979.6;;;18.6;60
79000;BME280;68406;53.914;27.416;2023-07-20T05:35:28;979.6;;;18.7;60.1
79000;BME280;68406;53.914;27.416;2023-07-20T05:40:24;979.6;;;18.6;60.3
79000;BME280;68406;53.914;27.416;2023-07-20T05:45:58;979.6;;;18.7;60.6
79000;BME280;68406;53.914;27.416;2023-07-20T05:50:16;979.6;;;18.8;60.5
79000;BME280;68406;53.914;27.416;2023-07-20T05:55:16;979.6;;;19;60.1
79000;BME280;68406;53.914;27.416;2023-07-20T06:00:45;979.6;;;19.2;59.2
79000;BME280;68406;53.914;27.416;2023-07-20T06:05:16;979.5;;;19.5;57.9
79000;BME280;68406;53.914;27.416;2023-07-20T06:10:16;979.4;;;19.7;57.1
79000;BME280;68406;53.914;27.416;2023-07-20T06:15:34;979.4;;;20;56.8
79000;BME280;68406;53.914;27.416;2023-07-20T06:20:58;979.3;;;20.4;55.8
79000;BME280;68406;53.914;27.416;2023-07-20T06:25:36;979.2;;;20.4;54.8
79000;BME280;68406;53.914;27.416;2023-07-20T06:30:59;979.2;;;20.1;54.8
79000;BME280;68406;53.914;27.416;2023-07-20T06:35:58;979;;;20;53.9
79000;BME280;68406;53.914;27.416;2023-07-20T06:40:45;978.9;;;19.9;54.2
79000;BME280;68406;53.914;27.416;2023-07-20T06:45:16;978.9;;;20;53.5
79000;BME280;68406;53.914;27.416;2023-07-20T06:50:34;978.8;;;19.9;53.8
79000;BME280;68406;53.914;27.416;2023-07-20T06:55:42;978.8;;;20.1;53.5
79000;BME280;68406;53.914;27.416;2023-07-20T07:00:22;978.9;;;20.4;52.3
79000;BME280;68406;53.914;27.416;2023-07-20T07:05:36;978.9;;;20.3;51.9
79000;BME280;68406;53.914;27.416;2023-07-20T07:10:50;978.8;;;20.4;51.8
79000;BME280;68406;53.914;27.416;2023-07-20T07:15:42;978.9;;;20.4;51.2
79000;BME280;68406;53.914;27.416;2023-07-20T07:20:45;978.9;;;20.6;50.7
79000;BME280;68406;53.914;27.416;2023-07-20T07:25:16;978.9;;;21.1;50.2
79000;BME280;68406;53.914;27.416;2023-07-20T07:30:16;979;;;21.3;49.8
79000;BME280;68406;53.914;27.416;2023-07-20T07:35:28;979.1;;;21.7;48.9
79000;BME280;68406;53.914;27.416;2023-07-20T07:40:58;978.9;;;22.4;47.7
79000;BME280;68406;53.914;27.416;2023-07-20T07:45:28;978.9;;;22.9;46
79000;BME280;68406;53.914;27.416;2023-07-20T07:50:42;978.8;;;23.1;45.2
79000;BME280;68406;53.914;27.416;2023-07-20T07:55:58;978.7;;;23.4;44.7
79000;BME280;68406;53.914;27.416;2023-07-20T08:00:36;978.7;;;23.8;43.9
79000;BME280;68406;53.914;27.416;2023-07-20T08:05:40;978.8;;;23.8;43.7
79000;BME280;68406;53.914;27.416;2023-07-20T08:10:52;978.8;;;24.3;42.8
79000;BME280;68406;53.914;27.416;2023-07-20T08:15:58;978.8;;;24.6;41.8
79000;BME280;68406;53.914;27.416;2023-07-20T08:20:58;978.7;;;25;41
79000;BME280;68406;53.914;27.416;2023-07-20T08:25:56;978.8;;;25.3;39.9
79000;BME280;68406;53.914;27.416;2023-07-20T08:30:58;978.8;;;25.3;39.8
79000;BME280;68406;53.914;27.416;2023-07-20T08:35:32;978.9;;;25.9;38.6
79000;BME280;68406;53.914;27.416;2023-07-20T08:40:16;978.8;;;26.5;37.5
79000;BME280;68406;53.914;27.416;2023-07-20T08:45:50;978.8;;;26.2;37.4
79000;BME280;68406;53.914;27.416;2023-07-20T08:50:58;978.8;;;25.8;37.5
79000;BME280;68406;53.914;27.416;2023-07-20T08:55:44;978.8;;;25.2;37.9
79000;BME280;68406;53.914;27.416;2023-07-20T09:00:50;978.8;;;24.9;38.4
79000;BME280;68406;53.914;27.416;2023-07-20T10:00:30;978.8;;;25.9;36.2
79000;BME280;68406;53.914;27.416;2023-07-20T10:05:46;978.8;;;27.1;33.1
79000;BME280;68406;53.914;27.416;2023-07-20T10:10:59;978.7;;;26.5;33.7
79000;BME280;68406;53.914;27.416;2023-07-20T10:15:36;978.8;;;26.5;33.8
79000;BME280;68406;53.914;27.416;2023-07-20T10:20:16;978.8;;;27.3;33.3
79000;BME280;68406;53.914;27.416;2023-07-20T10:25:44;978.8;;;27.7;32.2
79000;BME280;68406;53.914;27.416;2023-07-20T10:30:36;978.7;;;27.8;31.9
79000;BME280;68406;53.914;27.416;2023-07-20T10:35:22;978.7;;;28.2;31.6
79000;BME280;68406;53.914;27.416;2023-07-20T10:40:37;978.7;;;28.8;31
79000;BME280;68406;53.914;27.416;2023-07-20T10:45:58;978.7;;;29;30.8
79000;BME280;68406;53.914;27.416;2023-07-20T10:50:36;978.7;;;28.1;31.7
79000;BME280;68406;53.914;27.416;2023-07-20T10:56:05;978.7;;;27.7;32.3
79000;BME280;68406;53.914;27.416;2023-07-20T11:01:00;978.7;;;27.9;32.1
79000;BME280;68406;53.914;27.416;2023-07-20T11:05:32;978.6;;;28.2;31.9
79000;BME280;68406;53.914;27.416;2023-07-20T11:10:28;978.7;;;28.3;32.1
79000;BME280;68406;53.914;27.416;2023-07-20T11:15:16;978.7;;;27.7;32.4
79000;BME280;68406;53.914;27.416;2023-07-20T11:20:16;978.6;;;27.4;32.7
79000;BME280;68406;53.914;27.416;2023-07-20T11:25:22;978.6;;;27.5;32.8
79000;BME280;68406;53.914;27.416;2023-07-20T11:30:22;978.6;;;27.9;32.3
79000;BME280;68406;53.914;27.416;2023-07-20T11:35:41;978.5;;;28.3;31.8
79000;BME280;68406;53.914;27.416;2023-07-20T11:40:36;978.4;;;28.8;31.3
79000;BME280;68406;53.914;27.416;2023-07-20T11:45:42;978.4;;;29.3;30.6
79000;BME280;68406;53.914;27.416;2023-07-20T11:50:16;978.4;;;29.4;30.4
79000;BME280;68406;53.914;27.416;2023-07-20T11:55:28;978.4;;;28.8;30.8
79000;BME280;68406;53.914;27.416;2023-07-20T12:00:24;978.4;;;27.9;31.6
79000;BME280;68406;53.914;27.416;2023-07-20T12:06:05;978.5;;;27.3;32.1
79000;BME280;68406;53.914;27.416;2023-07-20T12:10:16;978.5;;;26.1;33.8
79000;BME280;68406;53.914;27.416;2023-07-20T12:15:42;978.5;;;25.2;35
79000;BME280;68406;53.914;27.416;2023-07-20T12:20:58;978.6;;;24.5;36.3
79000;BME280;68406;53.914;27.416;2023-07-20T12:25:50;978.7;;;23.9;37.5
79000;BME280;68406;53.914;27.416;2023-07-20T12:30:16;978.6;;;23.7;38.1
79000;BME280;68406;53.914;27.416;2023-07-20T12:35:48;978.6;;;23.6;38.4
79000;BME280;68406;53.914;27.416;2023-07-20T12:40:56;978.6;;;23.8;38.2
79000;BME280;68406;53.914;27.416;2023-07-20T12:45:58;978.5;;;23.9;37.9
79000;BME280;68406;53.914;27.416;2023-07-20T12:50:58;978.5;;;23.8;37.8
79000;BME280;68406;53.914;27.416;2023-07-20T12:55:58;978.5;;;24.3;37.4
79000;BME280;68406;53.914;27.416;2023-07-20T13:00:16;978.6;;;25.2;36.2
79000;BME280;68406;53.914;27.416;2023-07-20T13:05:16;978.5;;;25.8;35
79000;BME280;68406;53.914;27.416;2023-07-20T13:10:36;978.4;;;26.7;33.7
79000;BME280;68406;53.914;27.416;2023-07-20T13:15:58;978.4;;;27.4;32.7
79000;BME280;68406;53.914;27.416;2023-07-20T13:20:44;978.3;;;28.9;30.5
79000;BME280;68406;53.914;27.416;2023-07-20T13:25:50;978.2;;;29.7;29.1
79000;BME280;68406;53.914;27.416;2023-07-20T13:30:58;978.2;;;30.4;28.1
79000;BME280;68406;53.914;27.416;2023-07-20T13:35:28;978.1;;;32.3;26
79000;BME280;68406;53.914;27.416;2023-07-20T13:40:16;978.1;;;33.3;25
79000;BME280;68406;53.914;27.416;2023-07-20T13:45:30;978.1;;;32.4;25.1
79000;BME280;68406;53.914;27.416;2023-07-20T13:50:58;978;;;32.2;25.1
79000;BME280;68406;53.914;27.416;2023-07-20T13:55:38;978.1;;;31.1;26
79000;BME280;68406;53.914;27.416;2023-07-20T14:00:50;978.1;;;29.5;27.3
79000;BME280;68406;53.914;27.416;2023-07-20T14:05:34;978;;;28.4;28.4
79000;BME280;68406;53.914;27.416;2023-07-20T14:10:22;978;;;28;28.8
79000;BME280;68406;53.914;27.416;2023-07-20T14:15:44;978;;;27.8;29.5
79000;BME280;68406;53.914;27.416;2023-07-20T14:20:36;978;;;26.6;31.2
79000;BME280;68406;53.914;27.416;2023-07-20T14:25:42;978;;;25.9;32.4
79000;BME280;68406;53.914;27.416;2023-07-20T14:30:44;977.9;;;26.6;31.7
79000;BME280;68406;53.914;27.416;2023-07-20T14:35:58;977.8;;;28.8;29.1
79000;BME280;68406;53.914;27.416;2023-07-20T14:40:16;977.8;;;30.9;27.5
79000;BME280;68406;53.914;27.416;2023-07-20T14:45:28;977.8;;;29.4;28.9
79000;BME280;68406;53.914;27.416;2023-07-20T14:50:24;977.8;;;27.9;30
79000;BME280;68406;53.914;27.416;2023-07-20T14:55:36;977.8;;;26.9;30.8
79000;BME280;68406;53.914;27.416;2023-07-20T15:00:22;977.8;;;26.3;31.7
79000;BME280;68406;53.914;27.416;2023-07-20T15:05:34;977.8;;;25.7;32.6
79000;BME280;68406;53.914;27.416;2023-07-20T15:10:24;977.7;;;25.4;33.2
79000;BME280;68406;53.914;27.416;2023-07-20T15:15:16;977.7;;;25.3;32.9
79000;BME280;68406;53.914;27.416;2023-07-20T15:20:36;977.8;;;25;33.3
79000;BME280;68406;53.914;27.416;2023-07-20T15:25:46;977.7;;;24.6;33.9
79000;BME280;68406;53.914;27.416;2023-07-20T15:30:30;977.7;;;24.3;34.2
79000;BME280;68406;53.914;27.416;2023-07-20T15:35:28;977.7;;;24.3;34.4
79000;BME280;68406;53.914;27.416;2023-07-20T15:40:26;977.8;;;24.4;34.5
79000;BME280;68406;53.914;27.416;2023-07-20T15:45:28;977.9;;;24.3;34.9
79000;BME280;68406;53.914;27.416;2023-07-20T15:50:22;977.9;;;24;35.1
79000;BME280;68406;53.914;27.416;2023-07-20T15:55:36;977.9;;;23.6;35.4
79000;BME280;68406;53.914;27.416;2023-07-20T16:00:52;977.9;;;23.3;36.2
79000;BME280;68406;53.914;27.416;2023-07-20T16:05:36;978;;;23;36.6
79000;BME280;68406;53.914;27.416;2023-07-20T16:10:36;978;;;23;36.9
79000;BME280;68406;53.914;27.416;2023-07-20T16:15:34;978;;;23;37.1
79000;BME280;68406;53.914;27.416;2023-07-20T16:20:34;978;;;23;37.3
79000;BME280;68406;53.914;27.416;2023-07-20T16:25:22;978.1;;;23.1;37.5
79000;BME280;68406;53.914;27.416;2023-07-20T16:30:58;978;;;23.2;37.8
79000;BME280;68406;53.914;27.416;2023-07-20T16:35:22;978;;;23.7;37.3
79000;BME280;68406;53.914;27.416;2023-07-20T16:40:42;978;;;24.2;36.6
79000;BME280;68406;53.914;27.416;2023-07-20T16:45:59;978;;;24.1;36.9
79000;BME280;68406;53.914;27.416;2023-07-20T16:50:50;978;;;24.2;37.1
79000;BME280;68406;53.914;27.416;2023-07-20T16:55:26;978;;;25.8;34.5
79000;BME280;68406;53.914;27.416;2023-07-20T17:25:28;978.2;;;35.1;21.7
79000;BME280;68406;53.914;27.416;2023-07-20T17:30:16;978.1;;;34.2;22.1
79000;BME280;68406;53.914;27.416;2023-07-20T17:35:50;978.2;;;33.1;24.1
79000;BME280;68406;53.914;27.416;2023-07-20T17:40:56;978.2;;;30;28.3
79000;BME280;68406;53.914;27.416;2023-07-20T17:45:58;978.3;;;26.8;32.1
79000;BME280;68406;53.914;27.416;2023-07-20T17:50:50;978.3;;;24.5;35.2
79000;BME280;68406;53.914;27.416;2023-07-20T17:55:58;978.4;;;23;37.9
79000;BME280;68406;53.914;27.416;2023-07-20T18:00:16;978.4;;;21.9;40
79000;BME280;68406;53.914;27.416;2023-07-20T18:05:22;978.4;;;21.2;42.1
79000;BME280;68406;53.914;27.416;2023-07-20T18:10:16;978.5;;;20.6;43.5
79000;BME280;68406;53.914;27.416;2023-07-20T18:15:58;978.6;;;20.2;46.7
79000;BME280;68406;53.914;27.416;2023-07-20T18:20:44;978.6;;;19.8;47.1
79000;BME280;68406;53.914;27.416;2023-07-20T18:25:50;978.6;;;19.5;47.7
79000;BME280;68406;53.914;27.416;2023-07-20T18:30:34;978.7;;;19.3;48.8
79000;BME280;68406;53.914;27.416;2023-07-20T18:35:16;978.7;;;18.9;50
79000;BME280;68406;53.914;27.416;2023-07-20T18:40:58;978.8;;;18.8;50.7
79000;BME280;68406;53.914;27.416;2023-07-20T18:45:36;978.9;;;18.7;51.4
79000;BME280;68406;53.914;27.416;2023-07-20T18:50:28;978.9;;;18.6;52.1
79000;BME280;68406;53.914;27.416;2023-07-20T18:55:50;978.8;;;18.4;52.9
79000;BME280;68406;53.914;27.416;2023-07-20T19:00:58;978.8;;;18.3;53.4
79000;BME280;68406;53.914;27.416;2023-07-20T19:05:16;978.8;;;18.1;54.2
79000;BME280;68406;53.914;27.416;2023-07-20T19:10:16;978.8;;;17.9;54.7
79000;BME280;68406;53.914;27.416;2023-07-20T19:15:58;978.8;;;17.9;54.4
79000;BME280;68406;53.914;27.416;2023-07-20T19:20:44;978.8;;;17.8;54.2
79000;BME280;68406;53.914;27.416;2023-07-20T19:25:28;978.9;;;17.8;54.2
79000;BME280;68406;53.914;27.416;2023-07-20T19:30:22;978.9;;;17.8;53.8
79000;BME280;68406;53.914;27.416;2023-07-20T19:35:30;978.9;;;17.7;53.8
79000;BME280;68406;53.914;27.416;2023-07-20T19:40:36;978.9;;;17.5;53.9
79000;BME280;68406;53.914;27.416;2023-07-20T19:45:36;978.9;;;17.5;54.2
79000;BME280;68406;53.914;27.416;2023-07-20T19:50:58;979;;;17.4;54.7
79000;BME280;68406;53.914;27.416;2023-07-20T19:55:42;979;;;17.3;55.3
79000;BME280;68406;53.914;27.416;2023-07-20T20:00:16;979;;;17.2;56.3
79000;BME280;68406;53.914;27.416;2023-07-20T20:05:58;979.1;;;17;57.5
79000;BME280;68406;53.914;27.416;2023-07-20T20:10:35;979.1;;;16.8;58
79000;BME280;68406;53.914;27.416;2023-07-20T20:15:29;979.2;;;16.7;58.3
79000;BME280;68406;53.914;27.416;2023-07-20T20:20:36;979.2;;;16.7;58.7
79000;BME280;68406;53.914;27.416;2023-07-20T20:25:50;979.1;;;16.7;58.7
79000;BME280;68406;53.914;27.416;2023-07-20T20:30:30;979.2;;;16.7;58.8
79000;BME280;68406;53.914;27.416;2023-07-20T20:35:36;979.1;;;16.6;59
79000;BME280;68406;53.914;27.416;2023-07-20T20:40:34;979.2;;;16.5;59.2
79000;BME280;68406;53.914;27.416;2023-07-20T20:45:22;979.2;;;16.4;59.4
79000;BME280;68406;53.914;27.416;2023-07-20T20:50:16;979.3;;;16.3;59.7
79000;BME280;68406;53.914;27.416;2023-07-20T20:55:58;979.3;;;16.3;59.8
79000;BME280;68406;53.914;27.416;2023-07-20T21:00:28;979.4;;;16.2;60.1
79000;BME280;68406;53.914;27.416;2023-07-20T21:05:42;979.4;;;16.2;60.6
79000;BME280;68406;53.914;27.416;2023-07-20T21:10:58;979.4;;;16;61.5
79000;BME280;68406;53.914;27.416;2023-07-20T21:15:50;979.4;;;15.9;62.2
79000;BME280;68406;53.914;27.416;2023-07-20T21:20:16;979.4;;;15.7;62.8
79000;BME280;68406;53.914;27.416;2023-07-20T21:25:50;979.5;;;15.6;63.2
79000;BME280;68406;53.914;27.416;2023-07-20T21:31:00;979.5;;;15.6;63.5
79000;BME280;68406;53.914;27.416;2023-07-20T21:35:58;979.5;;;15.5;63.9
79000;BME280;68406;53.914;27.416;2023-07-20T21:40:58;979.5;;;15.4;64.1
79000;BME280;68406;53.914;27.416;2023-07-20T21:45:56;979.5;;;15.4;64.4
79000;BME280;68406;53.914;27.416;2023-07-20T21:50:28;979.6;;;15.3;64.8
79000;BME280;68406;53.914;27.416;2023-07-20T21:55:16;979.6;;;15.2;65.2
79000;BME280;68406;53.914;27.416;2023-07-20T22:00:18;979.6;;;15.2;65.6
79000;BME280;68406;53.914;27.416;2023-07-20T22:06:01;979.6;;;15.1;66.1
79000;BME280;68406;53.914;27.416;2023-07-20T22:11:04;979.7;;;15;66.6
79000;BME280;68406;53.914;27.416;2023-07-20T22:15:50;979.8;;;14.9;67
79000;BME280;68406;53.914;27.416;2023-07-20T22:20:52;979.7;;;14.8;67.3
79000;BME280;68406;53.914;27.416;2023-07-20T22:25:22;979.7;;;14.9;67.6
79000;BME280;68406;53.914;27.416;2023-07-20T22:30:22;979.7;;;14.9;67.9
79000;BME280;68406;53.914;27.416;2023-07-20T22:35:30;979.8;;;14.9;68.1
79000;BME280;68406;53.914;27.416;2023-07-20T22:40:58;979.7;;;14.9;68.5
79000;BME280;68406;53.914;27.416;2023-07-20T22:45:44;979.7;;;14.8;69
79000;BME280;68406;53.914;27.416;2023-07-20T22:50:58;979.7;;;14.8;69.3
79000;BME280;68406;53.914;27.416;2023-07-20T22:55:16;979.8;;;14.8;69.5
79000;BME280;68406;53.914;27.416;2023-07-20T23:00:17;979.9;;;14.8;69.3
79000;BME280;68406;53.914;27.416;2023-07-20T23:05:44;979.9;;;14.8;69.3
79000;BME280;68406;53.914;27.416;2023-07-20T23:10:16;979.9;;;14.8;69.2
79000;BME280;68406;53.914;27.416;2023-07-20T23:15:16;979.8;;;14.9;68.8
79000;BME280;68406;53.914;27.416;2023-07-20T23:20:34;979.8;;;14.9;68.7
79000;BME280;68406;53.914;27.416;2023-07-20T23:25:58;979.8;;;14.9;68.6
79000;BME280;68406;53.914;27.416;2023-07-20T23:30:36;979.8;;;14.9;68.7
79000;BME280;68406;53.914;27.416;2023-07-20T23:35:36;979.9;;;14.9;68.7
79000;BME280;68406;53.914;27.416;2023-07-20T23:40:58;979.8;;;14.9;68.7
79000;BME280;68406;53.914;27.416;2023-07-20T23:45:18;979.8;;;14.9;68.7
79000;BME280;68406;53.914;27.416;2023-07-20T23:50:16;979.8;;;14.9;69
79000;BME280;68406;53.914;27.416;2023-07-20T23:55:28;979.8;;;14.8;69.1
